sensor_id;sensor_type;location;lat;lon;timestamp;pressure;altitude;pressure_sealevel;temperature;humidity
35676;BME280;21790;42.668;23.298;2023-05-25T03:52:09;94721.66;;;21.02;50.52
35676;BME280;21790;42.668;23.298;2023-05-25T03:54:34;94728.84;;;21.41;48.76
35676;BME280;21790;42.668;23.298;2023-05-25T03:57:00;94729.22;;;21.50;47.82
35676;BME280;21790;42.668;23.298;2023-05-25T03:59:28;94737.81;;;21.58;47.46
35676;BME280;21790;42.668;23.298;2023-05-25T04:05:04;94733.81;;;21.85;47.22
35676;BME280;21790;42.668;23.298;2023-05-25T04:07:41;94736.91;;;22.19;46.37
35676;BME280;21790;42.668;23.298;2023-05-25T04:10:16;94743.16;;;22.12;46.42
35676;BME280;21790;42.668;23.298;2023-05-25T04:12:59;94739.03;;;22.13;46.60
35676;BME280;21790;42.668;23.298;2023-05-25T04:15:26;94746.72;;;21.43;48.64
35676;BME280;21790;42.668;23.298;2023-05-25T04:17:51;94756.78;;;21.89;48.02
35676;BME280;21790;42.668;23.298;2023-05-25T04:20:20;94754.53;;;22.20;47.54
35676;BME280;21790;42.668;23.298;2023-05-25T04:22:45;94758.00;;;22.26;46.89
35676;BME280;21790;42.668;23.298;2023-05-25T04:25:11;94759.00;;;21.96;47.66
35676;BME280;21790;42.668;23.298;2023-05-25T04:27:37;94753.03;;;22.19;47.47
35676;BME280;21790;42.668;23.298;2023-05-25T04:30:05;94765.03;;;22.19;47.38
35676;BME280;21790;42.668;23.298;2023-05-25T04:32:31;94755.66;;;22.30;47.09
35676;BME280;21790;42.668;23.298;2023-05-25T04:34:56;94769.97;;;22.45;46.79
35676;BME280;21790;42.668;23.298;2023-05-25T04:37:24;94771.31;;;22.57;46.51
35676;BME280;21790;42.668;23.298;2023-05-25T04:39:54;94783.16;;;22.69;46.01
35676;BME280;21790;42.668;23.298;2023-05-25T04:42:21;94785.88;;;22.74;45.91
35676;BME280;21790;42.668;23.298;2023-05-25T04:44:49;94784.47;;;22.81;45.46
35676;BME280;21790;42.668;23.298;2023-05-25T04:47:17;94778.88;;;23.07;44.98
35676;BME280;21790;42.668;23.298;2023-05-25T04:49:43;94782.84;;;23.25;44.88
35676;BME280;21790;42.668;23.298;2023-05-25T04:52:09;94785.25;;;23.34;44.77
35676;BME280;21790;42.668;23.298;2023-05-25T04:54:35;94769.59;;;23.59;44.32
35676;BME280;21790;42.668;23.298;2023-05-25T04:57:01;94773.47;;;23.69;44.18
35676;BME280;21790;42.668;23.298;2023-05-25T04:59:27;94762.38;;;23.85;44.01
35676;BME280;21790;42.668;23.298;2023-05-25T05:01:52;94753.25;;;24.12;43.44
35676;BME280;21790;42.668;23.298;2023-05-25T05:04:17;94758.50;;;24.08;43.53
35676;BME280;21790;42.668;23.298;2023-05-25T05:06:43;94751.09;;;24.18;43.57
35676;BME280;21790;42.668;23.298;2023-05-25T05:09:08;94748.47;;;24.41;43.19
35676;BME280;21790;42.668;23.298;2023-05-25T05:11:34;94752.09;;;24.49;42.92
35676;BME280;21790;42.668;23.298;2023-05-25T05:13:59;94753.34;;;24.41;42.87
35676;BME280;21790;42.668;23.298;2023-05-25T05:16:25;94756.91;;;24.62;42.91
35676;BME280;21790;42.668;23.298;2023-05-25T05:18:50;94749.31;;;24.78;42.53
35676;BME280;21790;42.668;23.298;2023-05-25T05:21:16;94758.50;;;24.91;42.53
35676;BME280;21790;42.668;23.298;2023-05-25T05:23:42;94753.19;;;24.67;41.90
35676;BME280;21790;42.668;23.298;2023-05-25T05:26:08;94743.19;;;24.87;41.83
35676;BME280;21790;42.668;23.298;2023-05-25T05:28:36;94749.94;;;25.12;41.99
35676;BME280;21790;42.668;23.298;2023-05-25T05:31:01;94760.78;;;25.29;41.50
35676;BME280;21790;42.668;23.298;2023-05-25T05:33:27;94765.59;;;25.41;41.23
35676;BME280;21790;42.668;23.298;2023-05-25T05:35:53;94765.25;;;25.53;41.34
35676;BME280;21790;42.668;23.298;2023-05-25T05:38:19;94770.44;;;25.69;41.04
35676;BME280;21790;42.668;23.298;2023-05-25T05:40:45;94771.03;;;25.75;40.98
35676;BME280;21790;42.668;23.298;2023-05-25T05:43:12;94767.88;;;25.94;40.55
35676;BME280;21790;42.668;23.298;2023-05-25T05:45:37;94772.63;;;25.99;40.56
35676;BME280;21790;42.668;23.298;2023-05-25T05:48:04;94777.34;;;26.04;40.15
35676;BME280;21790;42.668;23.298;2023-05-25T05:50:30;94780.78;;;26.10;40.26
35676;BME280;21790;42.668;23.298;2023-05-25T05:52:56;94782.66;;;26.15;39.96
35676;BME280;21790;42.668;23.298;2023-05-25T05:55:21;94786.63;;;26.20;40.04
35676;BME280;21790;42.668;23.298;2023-05-25T05:57:47;94787.25;;;26.26;39.94
35676;BME280;21790;42.668;23.298;2023-05-25T06:00:13;94786.13;;;26.37;39.74
35676;BME280;21790;42.668;23.298;2023-05-25T06:02:38;94781.59;;;26.41;39.51
35676;BME280;21790;42.668;23.298;2023-05-25T06:05:04;94786.16;;;26.52;39.69
35676;BME280;21790;42.668;23.298;2023-05-25T06:07:31;94786.16;;;26.52;39.88
35676;BME280;21790;42.668;23.298;2023-05-25T06:09:59;94784.28;;;26.62;39.70
35676;BME280;21790;42.668;23.298;2023-05-25T06:12:26;94778.03;;;26.63;39.07
35676;BME280;21790;42.668;23.298;2023-05-25T06:14:51;94782.78;;;26.76;38.69
35676;BME280;21790;42.668;23.298;2023-05-25T06:17:17;94775.59;;;26.83;38.88
35676;BME280;21790;42.668;23.298;2023-05-25T06:19:43;94776.34;;;26.91;38.55
35676;BME280;21790;42.668;23.298;2023-05-25T06:22:09;94790.34;;;26.96;38.04
35676;BME280;21790;42.668;23.298;2023-05-25T06:24:36;94784.69;;;27.04;37.63
35676;BME280;21790;42.668;23.298;2023-05-25T06:27:02;94788.28;;;27.04;37.41
35676;BME280;21790;42.668;23.298;2023-05-25T06:29:29;94785.78;;;27.24;37.60
35676;BME280;21790;42.668;23.298;2023-05-25T06:31:54;94786.91;;;27.36;37.78
35676;BME280;21790;42.668;23.298;2023-05-25T06:34:20;94795.56;;;27.45;37.71
35676;BME280;21790;42.668;23.298;2023-05-25T06:36:46;94785.53;;;27.44;37.77
35676;BME280;21790;42.668;23.298;2023-05-25T06:39:12;94787.44;;;27.42;38.34
35676;BME280;21790;42.668;23.298;2023-05-25T06:41:38;94792.50;;;27.66;38.08
35676;BME280;21790;42.668;23.298;2023-05-25T06:44:05;94798.94;;;27.67;37.85
35676;BME280;21790;42.668;23.298;2023-05-25T06:46:30;94797.75;;;27.77;37.88
35676;BME280;21790;42.668;23.298;2023-05-25T06:48:58;94786.78;;;27.81;37.64
35676;BME280;21790;42.668;23.298;2023-05-25T06:51:24;94793.00;;;27.87;38.23
35676;BME280;21790;42.668;23.298;2023-05-25T06:53:52;94794.47;;;27.96;38.07
35676;BME280;21790;42.668;23.298;2023-05-25T06:56:18;94797.34;;;27.88;37.85
35676;BME280;21790;42.668;23.298;2023-05-25T06:58:44;94800.66;;;28.10;37.80
35676;BME280;21790;42.668;23.298;2023-05-25T07:01:10;94792.34;;;28.04;38.63
35676;BME280;21790;42.668;23.298;2023-05-25T07:03:35;94796.38;;;27.94;38.57
35676;BME280;21790;42.668;23.298;2023-05-25T07:06:03;94794.41;;;28.19;38.27
35676;BME280;21790;42.668;23.298;2023-05-25T07:08:29;94793.44;;;28.16;38.26
35676;BME280;21790;42.668;23.298;2023-05-25T07:10:54;94793.59;;;28.26;38.43
35676;BME280;21790;42.668;23.298;2023-05-25T07:13:20;94781.97;;;28.39;37.95
35676;BME280;21790;42.668;23.298;2023-05-25T07:15:45;94784.69;;;28.54;38.10
35676;BME280;21790;42.668;23.298;2023-05-25T07:18:11;94785.34;;;28.45;38.71
35676;BME280;21790;42.668;23.298;2023-05-25T07:20:38;94776.75;;;28.53;38.39
35676;BME280;21790;42.668;23.298;2023-05-25T07:23:09;94775.03;;;28.57;38.63
35676;BME280;21790;42.668;23.298;2023-05-25T07:25:38;94779.44;;;28.76;37.93
35676;BME280;21790;42.668;23.298;2023-05-25T07:28:07;94783.56;;;28.57;38.12
35676;BME280;21790;42.668;23.298;2023-05-25T07:30:33;94788.63;;;28.59;38.50
35676;BME280;21790;42.668;23.298;2023-05-25T07:32:59;94798.09;;;28.61;38.20
35676;BME280;21790;42.668;23.298;2023-05-25T07:35:25;94793.97;;;28.87;38.36
35676;BME280;21790;42.668;23.298;2023-05-25T07:37:57;94791.84;;;29.13;37.88
35676;BME280;21790;42.668;23.298;2023-05-25T07:40:24;94795.75;;;29.00;37.92
35676;BME280;21790;42.668;23.298;2023-05-25T07:42:50;94795.94;;;29.02;38.02
35676;BME280;21790;42.668;23.298;2023-05-25T07:45:16;94806.09;;;28.88;37.92
35676;BME280;21790;42.668;23.298;2023-05-25T07:47:41;94804.47;;;28.69;37.71
35676;BME280;21790;42.668;23.298;2023-05-25T07:50:07;94807.50;;;28.71;37.33
35676;BME280;21790;42.668;23.298;2023-05-25T07:52:34;94804.59;;;28.22;37.61
35676;BME280;21790;42.668;23.298;2023-05-25T07:55:00;94796.63;;;28.28;37.32
35676;BME280;21790;42.668;23.298;2023-05-25T07:57:25;94799.88;;;28.24;37.41
35676;BME280;21790;42.668;23.298;2023-05-25T07:59:51;94799.13;;;28.16;37.39
35676;BME280;21790;42.668;23.298;2023-05-25T08:02:17;94806.38;;;28.02;37.35
35676;BME280;21790;42.668;23.298;2023-05-25T08:04:42;94810.75;;;27.96;37.62
35676;BME280;21790;42.668;23.298;2023-05-25T08:07:07;94813.66;;;27.80;37.61
35676;BME280;21790;42.668;23.298;2023-05-25T08:09:33;94815.41;;;27.68;37.48
35676;BME280;21790;42.668;23.298;2023-05-25T08:11:59;94820.53;;;27.62;37.52
35676;BME280;21790;42.668;23.298;2023-05-25T08:14:25;94816.38;;;27.56;37.66
35676;BME280;21790;42.668;23.298;2023-05-25T08:16:50;94831.75;;;27.37;38.02
35676;BME280;21790;42.668;23.298;2023-05-25T08:19:16;94833.81;;;27.37;37.73
35676;BME280;21790;42.668;23.298;2023-05-25T08:21:42;94844.59;;;27.00;38.20
35676;BME280;21790;42.668;23.298;2023-05-25T08:24:07;94844.38;;;26.60;38.05
35676;BME280;21790;42.668;23.298;2023-05-25T08:26:34;94861.72;;;26.42;38.23
35676;BME280;21790;42.668;23.298;2023-05-25T08:29:04;94862.25;;;26.33;38.22
35676;BME280;21790;42.668;23.298;2023-05-25T08:31:30;94864.44;;;26.19;38.41
35676;BME280;21790;42.668;23.298;2023-05-25T08:33:57;94860.47;;;26.14;38.37
35676;BME280;21790;42.668;23.298;2023-05-25T08:36:23;94866.78;;;25.92;38.99
35676;BME280;21790;42.668;23.298;2023-05-25T08:38:49;94868.31;;;25.93;39.11
35676;BME280;21790;42.668;23.298;2023-05-25T08:41:15;94870.91;;;25.83;39.79
35676;BME280;21790;42.668;23.298;2023-05-25T08:43:41;94879.34;;;25.76;40.34
35676;BME280;21790;42.668;23.298;2023-05-25T08:46:08;94879.13;;;25.66;40.82
35676;BME280;21790;42.668;23.298;2023-05-25T08:48:35;94882.50;;;25.65;41.22
35676;BME280;21790;42.668;23.298;2023-05-25T08:51:04;94880.81;;;25.69;41.85
35676;BME280;21790;42.668;23.298;2023-05-25T08:53:34;94887.09;;;25.75;41.81
35676;BME280;21790;42.668;23.298;2023-05-25T08:56:02;94880.16;;;25.27;42.76
35676;BME280;21790;42.668;23.298;2023-05-25T08:58:33;94890.09;;;25.21;42.40
35676;BME280;21790;42.668;23.298;2023-05-25T09:01:00;94895.25;;;24.68;43.22
35676;BME280;21790;42.668;23.298;2023-05-25T09:03:28;94896.00;;;24.68;43.52
35676;BME280;21790;42.668;23.298;2023-05-25T09:05:55;94897.13;;;24.86;43.06
35676;BME280;21790;42.668;23.298;2023-05-25T09:08:21;94898.41;;;24.98;43.19
35676;BME280;21790;42.668;23.298;2023-05-25T09:10:47;94906.13;;;24.97;43.50
35676;BME280;21790;42.668;23.298;2023-05-25T09:13:13;94904.53;;;24.89;43.41
35676;BME280;21790;42.668;23.298;2023-05-25T09:15:39;94910.66;;;25.00;42.95
35676;BME280;21790;42.668;23.298;2023-05-25T09:18:04;94909.28;;;24.94;42.50
35676;BME280;21790;42.668;23.298;2023-05-25T09:20:30;94908.22;;;24.84;42.09
35676;BME280;21790;42.668;23.298;2023-05-25T09:22:57;94902.69;;;24.78;42.67
35676;BME280;21790;42.668;23.298;2023-05-25T09:25:27;94899.13;;;24.44;43.59
35676;BME280;21790;42.668;23.298;2023-05-25T09:27:52;94904.97;;;24.59;42.47
35676;BME280;21790;42.668;23.298;2023-05-25T09:30:18;94906.06;;;24.56;42.57
35676;BME280;21790;42.668;23.298;2023-05-25T09:32:44;94892.56;;;24.62;42.66
35676;BME280;21790;42.668;23.298;2023-05-25T09:35:14;94894.25;;;24.44;43.39
35676;BME280;21790;42.668;23.298;2023-05-25T09:37:41;94897.63;;;24.43;44.33
35676;BME280;21790;42.668;23.298;2023-05-25T09:40:07;94889.28;;;24.37;45.05
35676;BME280;21790;42.668;23.298;2023-05-25T09:42:35;94892.66;;;24.36;45.18
35676;BME280;21790;42.668;23.298;2023-05-25T09:45:01;94886.91;;;24.28;46.30
35676;BME280;21790;42.668;23.298;2023-05-25T09:47:27;94877.47;;;24.26;46.82
35676;BME280;21790;42.668;23.298;2023-05-25T09:49:53;94879.34;;;24.44;45.58
35676;BME280;21790;42.668;23.298;2023-05-25T09:52:19;94875.63;;;24.28;45.35
35676;BME280;21790;42.668;23.298;2023-05-25T09:54:45;94865.44;;;24.46;44.80
35676;BME280;21790;42.668;23.298;2023-05-25T09:57:11;94870.31;;;24.58;44.90
35676;BME280;21790;42.668;23.298;2023-05-25T09:59:36;94865.91;;;24.71;45.45
35676;BME280;21790;42.668;23.298;2023-05-25T10:02:02;94859.63;;;24.65;45.59
35676;BME280;21790;42.668;23.298;2023-05-25T10:04:28;94866.94;;;24.81;46.49
35676;BME280;21790;42.668;23.298;2023-05-25T10:06:53;94865.03;;;24.96;47.55
35676;BME280;21790;42.668;23.298;2023-05-25T10:09:21;94857.41;;;25.12;47.68
35676;BME280;21790;42.668;23.298;2023-05-25T10:11:50;94863.03;;;25.33;47.30
35676;BME280;21790;42.668;23.298;2023-05-25T10:14:22;94856.22;;;25.28;46.17
35676;BME280;21790;42.668;23.298;2023-05-25T10:16:53;94854.84;;;25.50;45.66
35676;BME280;21790;42.668;23.298;2023-05-25T10:19:20;94848.53;;;25.65;45.25
35676;BME280;21790;42.668;23.298;2023-05-25T10:25:02;94849.28;;;26.01;45.01
35676;BME280;21790;42.668;23.298;2023-05-25T10:27:38;94848.47;;;25.93;44.61
35676;BME280;21790;42.668;23.298;2023-05-25T10:30:05;94840.00;;;25.93;42.97
35676;BME280;21790;42.668;23.298;2023-05-25T10:32:33;94830.94;;;26.02;44.13
35676;BME280;21790;42.668;23.298;2023-05-25T10:35:02;94840.38;;;25.97;43.27
35676;BME280;21790;42.668;23.298;2023-05-25T10:37:28;94830.56;;;25.98;44.07
35676;BME280;21790;42.668;23.298;2023-05-25T10:39:55;94824.13;;;25.98;43.42
35676;BME280;21790;42.668;23.298;2023-05-25T10:42:21;94822.47;;;26.02;43.31
35676;BME280;21790;42.668;23.298;2023-05-25T10:44:48;94801.28;;;25.88;41.81
35676;BME280;21790;42.668;23.298;2023-05-25T10:47:14;94802.31;;;26.21;42.22
35676;BME280;21790;42.668;23.298;2023-05-25T10:49:57;94802.38;;;26.29;43.59
35676;BME280;21790;42.668;23.298;2023-05-25T10:52:27;94799.28;;;26.19;43.93
35676;BME280;21790;42.668;23.298;2023-05-25T10:54:57;94788.78;;;26.27;43.83
35676;BME280;21790;42.668;23.298;2023-05-25T10:57:26;94792.50;;;26.22;43.12
35676;BME280;21790;42.668;23.298;2023-05-25T10:59:53;94789.69;;;26.30;43.53
35676;BME280;21790;42.668;23.298;2023-05-25T11:02:26;94787.63;;;26.30;43.08
35676;BME280;21790;42.668;23.298;2023-05-25T11:05:29;94789.66;;;26.14;43.80
35676;BME280;21790;42.668;23.298;2023-05-25T11:08:02;94776.78;;;26.06;44.00
35676;BME280;21790;42.668;23.298;2023-05-25T11:16:21;94783.75;;;25.97;43.88
35676;BME280;21790;42.668;23.298;2023-05-25T11:24:09;94784.66;;;25.92;43.45
35676;BME280;21790;42.668;23.298;2023-05-25T11:26:35;94789.94;;;25.88;41.98
35676;BME280;21790;42.668;23.298;2023-05-25T11:29:11;94785.63;;;26.02;43.11
35676;BME280;21790;42.668;23.298;2023-05-25T11:31:37;94779.50;;;25.68;43.57
35676;BME280;21790;42.668;23.298;2023-05-25T11:34:03;94794.38;;;25.61;44.52
35676;BME280;21790;42.668;23.298;2023-05-25T11:36:30;94781.97;;;25.71;44.24
35676;BME280;21790;42.668;23.298;2023-05-25T11:38:59;94785.53;;;25.72;43.88
35676;BME280;21790;42.668;23.298;2023-05-25T11:41:26;94783.09;;;25.76;44.42
35676;BME280;21790;42.668;23.298;2023-05-25T11:43:52;94780.69;;;25.80;43.90
35676;BME280;21790;42.668;23.298;2023-05-25T11:46:19;94793.16;;;25.92;43.43
35676;BME280;21790;42.668;23.298;2023-05-25T11:48:51;94788.47;;;26.02;42.77
35676;BME280;21790;42.668;23.298;2023-05-25T11:51:22;94792.06;;;26.03;43.79
35676;BME280;21790;42.668;23.298;2023-05-25T11:53:48;94780.72;;;25.95;44.50
35676;BME280;21790;42.668;23.298;2023-05-25T11:56:15;94788.69;;;26.04;43.89
35676;BME280;21790;42.668;23.298;2023-05-25T11:58:42;94790.75;;;26.04;43.04
35676;BME280;21790;42.668;23.298;2023-05-25T12:01:22;94783.44;;;26.16;42.99
35676;BME280;21790;42.668;23.298;2023-05-25T12:03:52;94773.09;;;26.26;42.99
35676;BME280;21790;42.668;23.298;2023-05-25T12:06:29;94777.84;;;26.39;43.29
35676;BME280;21790;42.668;23.298;2023-05-25T12:08:56;94774.91;;;26.08;44.46
35676;BME280;21790;42.668;23.298;2023-05-25T12:11:34;94775.19;;;26.41;43.50
35676;BME280;21790;42.668;23.298;2023-05-25T12:14:03;94772.53;;;26.43;43.43
35676;BME280;21790;42.668;23.298;2023-05-25T12:16:29;94765.00;;;26.53;43.26
35676;BME280;21790;42.668;23.298;2023-05-25T12:18:56;94771.41;;;26.46;44.18
35676;BME280;21790;42.668;23.298;2023-05-25T12:21:22;94766.13;;;26.57;43.02
35676;BME280;21790;42.668;23.298;2023-05-25T12:23:49;94767.28;;;26.62;42.33
35676;BME280;21790;42.668;23.298;2023-05-25T12:26:17;94754.63;;;26.40;43.56
35676;BME280;21790;42.668;23.298;2023-05-25T12:29:06;94750.25;;;26.39;41.97
35676;BME280;21790;42.668;23.298;2023-05-25T12:31:33;94745.72;;;26.36;40.87
35676;BME280;21790;42.668;23.298;2023-05-25T12:34:12;94746.13;;;26.55;41.62
35676;BME280;21790;42.668;23.298;2023-05-25T12:36:50;94739.47;;;26.68;40.98
35676;BME280;21790;42.668;23.298;2023-05-25T12:41:53;94730.22;;;26.75;38.98
35676;BME280;21790;42.668;23.298;2023-05-25T12:44:26;94732.13;;;26.95;39.08
35676;BME280;21790;42.668;23.298;2023-05-25T12:46:54;94719.66;;;26.91;40.89
35676;BME280;21790;42.668;23.298;2023-05-25T12:49:33;94723.00;;;27.12;39.77
35676;BME280;21790;42.668;23.298;2023-05-25T12:52:00;94719.59;;;27.06;38.69
35676;BME280;21790;42.668;23.298;2023-05-25T12:54:43;94702.94;;;27.18;39.00
35676;BME280;21790;42.668;23.298;2023-05-25T12:57:11;94710.50;;;27.23;38.80
35676;BME280;21790;42.668;23.298;2023-05-25T12:59:38;94699.13;;;27.23;38.52
35676;BME280;21790;42.668;23.298;2023-05-25T13:02:04;94699.31;;;27.32;38.41
35676;BME280;21790;42.668;23.298;2023-05-25T13:04:31;94697.97;;;27.33;38.33
35676;BME280;21790;42.668;23.298;2023-05-25T13:06:58;94693.78;;;27.42;38.27
35676;BME280;21790;42.668;23.298;2023-05-25T13:09:25;94681.88;;;27.43;37.30
35676;BME280;21790;42.668;23.298;2023-05-25T13:11:54;94673.53;;;27.53;37.10
35676;BME280;21790;42.668;23.298;2023-05-25T13:14:21;94680.88;;;27.56;36.99
35676;BME280;21790;42.668;23.298;2023-05-25T13:16:49;94673.66;;;27.63;37.19
35676;BME280;21790;42.668;23.298;2023-05-25T13:19:16;94668.41;;;27.52;36.64
35676;BME280;21790;42.668;23.298;2023-05-25T13:21:41;94669.56;;;27.48;37.05
35676;BME280;21790;42.668;23.298;2023-05-25T13:24:07;94673.53;;;27.53;36.06
35676;BME280;21790;42.668;23.298;2023-05-25T13:26:33;94668.97;;;27.58;35.23
35676;BME280;21790;42.668;23.298;2023-05-25T13:28:59;94670.47;;;27.59;35.26
35676;BME280;21790;42.668;23.298;2023-05-25T13:31:24;94675.22;;;27.48;35.44
35676;BME280;21790;42.668;23.298;2023-05-25T13:33:50;94660.84;;;27.54;35.20
35676;BME280;21790;42.668;23.298;2023-05-25T13:36:16;94668.41;;;27.52;33.96
35676;BME280;21790;42.668;23.298;2023-05-25T13:38:42;94668.56;;;27.61;34.49
35676;BME280;21790;42.668;23.298;2023-05-25T13:41:09;94663.09;;;27.56;34.28
35676;BME280;21790;42.668;23.298;2023-05-25T13:43:35;94668.94;;;27.65;34.56
35676;BME280;21790;42.668;23.298;2023-05-25T13:46:01;94666.31;;;27.60;33.82
35676;BME280;21790;42.668;23.298;2023-05-25T13:48:27;94671.38;;;27.61;33.92
35676;BME280;21790;42.668;23.298;2023-05-25T13:50:54;94661.00;;;27.56;33.82
35676;BME280;21790;42.668;23.298;2023-05-25T13:53:19;94673.47;;;27.61;34.23
35676;BME280;21790;42.668;23.298;2023-05-25T13:55:45;94672.59;;;27.51;31.99
35676;BME280;21790;42.668;23.298;2023-05-25T13:58:11;94680.53;;;27.52;32.73
35676;BME280;21790;42.668;23.298;2023-05-25T14:00:36;94677.88;;;27.54;32.56
35676;BME280;21790;42.668;23.298;2023-05-25T14:03:25;94672.59;;;27.43;31.60
35676;BME280;21790;42.668;23.298;2023-05-25T14:09:15;94668.41;;;27.52;31.27
35676;BME280;21790;42.668;23.298;2023-05-25T14:11:43;94667.47;;;27.49;31.71
35676;BME280;21790;42.668;23.298;2023-05-25T14:14:14;94669.91;;;27.60;32.38
35676;BME280;21790;42.668;23.298;2023-05-25T14:16:46;94672.78;;;27.53;32.22
35676;BME280;21790;42.668;23.298;2023-05-25T14:22:12;94663.84;;;27.56;30.98
35676;BME280;21790;42.668;23.298;2023-05-25T14:24:57;94662.53;;;27.57;30.61
35676;BME280;21790;42.668;23.298;2023-05-25T14:27:27;94653.44;;;27.59;31.11
35676;BME280;21790;42.668;23.298;2023-05-25T14:29:54;94643.59;;;27.60;31.34
35676;BME280;21790;42.668;23.298;2023-05-25T14:32:27;94630.50;;;27.64;30.80
35676;BME280;21790;42.668;23.298;2023-05-25T14:34:53;94639.78;;;27.65;31.04
35676;BME280;21790;42.668;23.298;2023-05-25T14:40:40;94635.31;;;27.54;32.76
35676;BME280;21790;42.668;23.298;2023-05-25T14:43:06;94641.50;;;27.60;32.14
35676;BME280;21790;42.668;23.298;2023-05-25T14:45:52;94638.69;;;27.60;32.46
35676;BME280;21790;42.668;23.298;2023-05-25T14:48:29;94635.47;;;27.56;33.08
35676;BME280;21790;42.668;23.298;2023-05-25T14:54:19;94640.88;;;27.29;31.81
35676;BME280;21790;42.668;23.298;2023-05-25T14:56:46;94640.66;;;27.35;32.61
35676;BME280;21790;42.668;23.298;2023-05-25T14:59:17;94632.28;;;27.44;31.71
35676;BME280;21790;42.668;23.298;2023-05-25T15:01:43;94634.53;;;27.54;32.69
35676;BME280;21790;42.668;23.298;2023-05-25T15:04:34;94635.84;;;27.60;31.21
35676;BME280;21790;42.668;23.298;2023-05-25T15:07:05;94630.41;;;27.39;31.36
35676;BME280;21790;42.668;23.298;2023-05-25T15:09:43;94616.75;;;27.45;31.13
35676;BME280;21790;42.668;23.298;2023-05-25T15:12:09;94620.72;;;27.50;31.10
35676;BME280;21790;42.668;23.298;2023-05-25T15:14:56;94616.88;;;27.63;31.15
35676;BME280;21790;42.668;23.298;2023-05-25T15:17:22;94621.13;;;27.39;31.42
35676;BME280;21790;42.668;23.298;2023-05-25T15:29:42;94612.00;;;27.56;30.89
35676;BME280;21790;42.668;23.298;2023-05-25T15:43:32;94630.47;;;26.61;37.32
35676;BME280;21790;42.668;23.298;2023-05-25T15:45:57;94644.03;;;25.72;39.68
35676;BME280;21790;42.668;23.298;2023-05-25T15:48:25;94635.16;;;25.83;39.95
35676;BME280;21790;42.668;23.298;2023-05-25T15:50:52;94640.66;;;26.04;39.64
35676;BME280;21790;42.668;23.298;2023-05-25T15:57:02;94652.50;;;25.21;42.27
35676;BME280;21790;42.668;23.298;2023-05-25T15:59:28;94628.53;;;24.78;43.26
35676;BME280;21790;42.668;23.298;2023-05-25T16:02:14;94632.63;;;25.41;42.41
35676;BME280;21790;42.668;23.298;2023-05-25T16:04:47;94649.94;;;24.94;43.74
35676;BME280;21790;42.668;23.298;2023-05-25T16:07:13;94639.06;;;24.70;44.96
35676;BME280;21790;42.668;23.298;2023-05-25T16:09:49;94632.13;;;24.01;47.79
35676;BME280;21790;42.668;23.298;2023-05-25T16:26:09;94676.91;;;24.95;46.27
35676;BME280;21790;42.668;23.298;2023-05-25T16:28:36;94685.28;;;25.09;45.82
35676;BME280;21790;42.668;23.298;2023-05-25T16:31:05;94685.31;;;25.16;45.23
35676;BME280;21790;42.668;23.298;2023-05-25T16:33:51;94695.91;;;25.23;45.41
35676;BME280;21790;42.668;23.298;2023-05-25T16:36:18;94703.00;;;25.09;45.63
35676;BME280;21790;42.668;23.298;2023-05-25T16:39:04;94699.31;;;25.29;45.23
35676;BME280;21790;42.668;23.298;2023-05-25T16:41:40;94699.66;;;25.26;46.50
35676;BME280;21790;42.668;23.298;2023-05-25T16:44:28;94707.25;;;25.31;45.23
35676;BME280;21790;42.668;23.298;2023-05-25T16:52:24;94717.31;;;25.11;45.18
35676;BME280;21790;42.668;23.298;2023-05-25T16:54:53;94724.50;;;25.12;46.01
35676;BME280;21790;42.668;23.298;2023-05-25T16:57:28;94731.69;;;25.13;46.95
35676;BME280;21790;42.668;23.298;2023-05-25T16:59:54;94735.59;;;25.10;47.01
35676;BME280;21790;42.668;23.298;2023-05-25T17:02:20;94736.13;;;25.01;48.91
35676;BME280;21790;42.668;23.298;2023-05-25T17:04:45;94747.53;;;24.88;48.92
35676;BME280;21790;42.668;23.298;2023-05-25T17:07:10;94744.09;;;24.61;51.30
35676;BME280;21790;42.668;23.298;2023-05-25T17:09:36;94746.31;;;24.55;51.89
35676;BME280;21790;42.668;23.298;2023-05-25T17:12:02;94750.94;;;24.45;51.79
35676;BME280;21790;42.668;23.298;2023-05-25T17:14:28;94751.72;;;24.25;52.52
35676;BME280;21790;42.668;23.298;2023-05-25T17:16:53;94758.25;;;24.06;52.71
35676;BME280;21790;42.668;23.298;2023-05-25T17:19:19;94749.03;;;24.06;52.80
35676;BME280;21790;42.668;23.298;2023-05-25T17:21:44;94746.72;;;24.17;52.78
35676;BME280;21790;42.668;23.298;2023-05-25T17:24:11;94745.53;;;24.13;53.43
35676;BME280;21790;42.668;23.298;2023-05-25T17:26:36;94741.69;;;24.03;53.95
35676;BME280;21790;42.668;23.298;2023-05-25T17:29:02;94737.34;;;24.02;54.22
35676;BME280;21790;42.668;23.298;2023-05-25T17:31:28;94736.78;;;23.83;53.40
35676;BME280;21790;42.668;23.298;2023-05-25T17:33:56;94732.38;;;23.95;53.46
35676;BME280;21790;42.668;23.298;2023-05-25T17:36:23;94741.47;;;24.01;53.22
35676;BME280;21790;42.668;23.298;2023-05-25T17:38:49;94746.41;;;24.21;52.38
35676;BME280;21790;42.668;23.298;2023-05-25T17:41:23;94749.09;;;24.27;50.85
35676;BME280;21790;42.668;23.298;2023-05-25T17:44:17;94743.13;;;24.17;51.04
35676;BME280;21790;42.668;23.298;2023-05-25T17:46:50;94724.16;;;24.17;51.42
35676;BME280;21790;42.668;23.298;2023-05-25T17:49:16;94730.53;;;23.97;51.82
35676;BME280;21790;42.668;23.298;2023-05-25T17:51:42;94737.81;;;24.13;51.82
35676;BME280;21790;42.668;23.298;2023-05-25T17:54:07;94739.25;;;24.20;52.21
35676;BME280;21790;42.668;23.298;2023-05-25T17:56:33;94730.63;;;24.46;51.03
35676;BME280;21790;42.668;23.298;2023-05-25T17:59:00;94732.31;;;24.49;50.80
35676;BME280;21790;42.668;23.298;2023-05-25T18:01:25;94732.41;;;24.57;50.41
35676;BME280;21790;42.668;23.298;2023-05-25T18:03:52;94731.75;;;24.43;51.21